Time;durP1;ratioP1;P1;durP2;ratioP2;P2;SDS_P1;SDS_P2;PMS_P1;PMS_P2;Temp;Humidity;BMP_temperature;BMP_pressure;BME280_temperature;BME280_humidity;BME280_pressure;Samples;Min_cycle;Max_cycle;Signal;HPM_P1;HPM_P2
2023/03/08 00:00:39;;;;;;;5.50;1.67;;;-0.20;99.90;;;;;;5060254;28;20084;-75
2023/03/08 00:03:12;;;;;;;7.78;2.25;;;-0.10;99.90;;;;;;5063653;28;20032;-75
2023/03/08 00:05:38;;;;;;;4.00;2.20;;;-0.10;99.90;;;;;;5068841;28;20157;-75
2023/03/08 00:08:07;;;;;;;5.80;1.58;;;-0.10;99.90;;;;;;5054551;28;20040;-74
2023/03/08 00:10:40;;;;;;;3.75;1.70;;;-0.10;99.90;;;;;;5064869;28;20044;-73
2023/03/08 00:13:06;;;;;;;2.72;1.45;;;-0.10;99.90;;;;;;5049381;28;20040;-73
2023/03/08 00:15:32;;;;;;;3.58;1.80;;;-0.10;99.90;;;;;;5049714;28;20044;-73
2023/03/08 00:17:58;;;;;;;4.50;1.55;;;-0.20;99.90;;;;;;5047612;28;20044;-73
2023/03/08 00:20:24;;;;;;;2.95;1.67;;;-0.10;99.90;;;;;;5040966;28;20162;-73
2023/03/08 00:22:50;;;;;;;5.30;1.77;;;-0.10;99.90;;;;;;5044063;28;20056;-72
2023/03/08 00:25:15;;;;;;;4.60;1.60;;;-0.20;99.90;;;;;;5030824;28;20097;-72
2023/03/08 00:27:41;;;;;;;3.13;1.60;;;-0.20;99.90;;;;;;5060981;28;20086;-73
2023/03/08 00:30:11;;;;;;;4.70;2.03;;;-0.20;99.90;;;;;;5059561;28;20044;-72
2023/03/08 00:32:37;;;;;;;6.38;2.22;;;-0.20;99.90;;;;;;5061368;28;20046;-72
2023/03/08 00:35:03;;;;;;;2.78;1.70;;;0.10;99.90;;;;;;5067315;28;20477;-73
2023/03/08 00:37:29;;;;;;;6.35;2.58;;;-0.20;99.90;;;;;;5064143;28;20058;-73
2023/03/08 00:39:54;;;;;;;3.05;1.85;;;-0.30;99.90;;;;;;5048903;28;20044;-73
2023/03/08 00:42:21;;;;;;;5.43;1.58;;;-0.30;99.90;;;;;;5043043;28;20076;-72
2023/03/08 00:44:47;;;;;;;5.47;1.67;;;-0.30;99.90;;;;;;5038018;28;20050;-72
2023/03/08 00:47:13;;;;;;;3.55;1.77;;;-0.40;99.90;;;;;;5038630;28;20086;-75
2023/03/08 00:49:39;;;;;;;4.43;1.60;;;-0.40;99.90;;;;;;5049258;28;20098;-75
2023/03/08 00:52:05;;;;;;;4.45;1.83;;;-0.40;99.90;;;;;;5069881;28;20090;-74
2023/03/08 00:54:31;;;;;;;5.55;1.50;;;-0.50;99.90;;;;;;5049920;28;20676;-75
2023/03/08 00:56:57;;;;;;;3.33;1.80;;;-0.50;99.90;;;;;;5052571;28;20063;-75
2023/03/08 00:59:24;;;;;;;3.15;1.70;;;-0.30;99.90;;;;;;5068482;28;20484;-75
2023/03/08 01:01:50;;;;;;;3.00;1.63;;;-0.60;99.90;;;;;;5047954;28;20799;-73
2023/03/08 01:04:16;;;;;;;2.83;1.73;;;-0.60;99.90;;;;;;5030141;28;20078;-73
2023/03/08 01:06:42;;;;;;;4.20;1.90;;;-0.70;99.90;;;;;;5052352;28;20161;-73
2023/03/08 01:09:08;;;;;;;3.10;1.73;;;-0.70;99.90;;;;;;5046268;28;20044;-73
2023/03/08 01:11:35;;;;;;;2.60;1.55;;;-0.80;99.90;;;;;;5056105;28;20061;-73
2023/03/08 01:14:02;;;;;;;4.20;2.13;;;-0.70;99.90;;;;;;5051747;28;20480;-73
2023/03/08 01:16:29;;;;;;;5.47;1.83;;;-0.80;99.90;;;;;;5032303;28;20059;-73
2023/03/08 01:18:56;;;;;;;4.13;1.40;;;-0.80;99.90;;;;;;5066170;28;20131;-73
2023/03/08 01:21:23;;;;;;;5.32;1.60;;;-0.90;99.90;;;;;;5052512;28;20044;-73
2023/03/08 01:23:49;;;;;;;4.70;1.42;;;-0.90;99.90;;;;;;5056275;28;20075;-72
2023/03/08 01:26:30;;;;;;;4.60;1.58;;;-0.90;99.90;;;;;;5056805;28;20040;-73
2023/03/08 01:28:57;;;;;;;3.50;1.70;;;-1.00;99.90;;;;;;5063406;28;20040;-73
2023/03/08 01:31:25;;;;;;;2.97;1.65;;;-1.00;99.90;;;;;;5044875;28;20044;-73
2023/03/08 01:34:16;;;;;;;3.45;1.38;;;-0.80;99.90;;;;;;5063354;28;20048;-73
2023/03/08 01:37:15;;;;;;;2.22;1.50;;;-1.00;99.90;;;;;;5030951;28;20052;-73
2023/03/08 01:39:40;;;;;;;6.28;1.77;;;-1.10;99.90;;;;;;5006814;28;20053;-74
2023/03/08 01:42:07;;;;;;;3.35;1.70;;;-1.10;99.90;;;;;;4976090;28;20959;-73
2023/03/08 01:44:54;;;;;;;5.45;1.88;;;-1.10;99.90;;;;;;5051000;28;20060;-73
2023/03/08 01:47:25;;;;;;;5.05;1.33;;;-1.00;99.90;;;;;;5067490;28;20039;-73
2023/03/08 01:50:01;;;;;;;4.60;1.70;;;-1.10;99.90;;;;;;5031404;28;20036;-74
2023/03/08 01:52:49;;;;;;;4.13;1.30;;;-1.10;99.90;;;;;;5039901;28;20117;-74
2023/03/08 01:55:18;;;;;;;2.03;1.38;;;-0.80;99.90;;;;;;5037990;28;20068;-74
2023/03/08 01:58:02;;;;;;;2.33;1.30;;;-1.10;99.90;;;;;;5028687;28;20098;-73
2023/03/08 02:00:27;;;;;;;3.22;1.33;;;-1.10;99.90;;;;;;5062534;28;20053;-73
2023/03/08 02:02:57;;;;;;;3.20;1.27;;;-1.10;99.90;;;;;;5035388;28;20481;-73
2023/03/08 02:05:24;;;;;;;5.95;1.30;;;-1.10;99.90;;;;;;5066190;28;20152;-73
2023/03/08 02:07:50;;;;;;;3.13;1.73;;;-1.10;99.90;;;;;;5040894;28;20061;-73
2023/03/08 02:10:17;;;;;;;2.72;1.60;;;-1.10;99.90;;;;;;5057279;28;20055;-73
2023/03/08 02:12:44;;;;;;;5.03;1.48;;;-1.20;99.90;;;;;;5029829;28;20528;-73
2023/03/08 02:15:11;;;;;;;5.03;1.60;;;-1.20;99.90;;;;;;5058647;28;20429;-73
2023/03/08 02:17:40;;;;;;;3.90;1.60;;;-1.20;99.90;;;;;;5064044;28;20147;-73
2023/03/08 02:20:11;;;;;;;6.00;1.90;;;-1.30;99.90;;;;;;5058523;28;20498;-73
2023/03/08 02:22:44;;;;;;;2.75;1.35;;;-1.30;99.90;;;;;;5042687;28;20040;-73
2023/03/08 02:25:15;;;;;;;5.00;1.52;;;-1.30;99.90;;;;;;5065689;28;20526;-73
2023/03/08 02:27:41;;;;;;;3.10;1.20;;;-1.30;99.90;;;;;;5064747;28;20040;-73
2023/03/08 02:30:08;;;;;;;2.65;1.10;;;-1.30;99.90;;;;;;5064418;28;20040;-72
2023/03/08 02:32:34;;;;;;;2.67;1.00;;;-1.30;99.90;;;;;;5065829;28;20052;-73
2023/03/08 02:35:00;;;;;;;2.63;1.00;;;-1.30;99.90;;;;;;5062821;28;20044;-73
2023/03/08 02:37:26;;;;;;;1.90;1.10;;;-1.10;99.90;;;;;;5030167;28;20123;-73
2023/03/08 02:39:52;;;;;;;4.95;1.23;;;-1.30;99.90;;;;;;5065410;28;20048;-73
2023/03/08 02:42:18;;;;;;;2.72;0.90;;;-1.30;99.90;;;;;;5059880;28;20057;-73
2023/03/08 02:44:44;;;;;;;3.63;1.10;;;-1.30;99.90;;;;;;5065929;28;20048;-72
2023/03/08 02:47:10;;;;;;;3.03;1.20;;;-1.30;99.90;;;;;;5060313;28;20517;-73
2023/03/08 02:49:35;;;;;;;3.15;1.00;;;-1.30;99.90;;;;;;5065543;28;20040;-73
2023/03/08 02:52:01;;;;;;;3.13;1.30;;;-1.30;99.90;;;;;;5067237;28;20056;-73
2023/03/08 02:54:27;;;;;;;2.60;0.90;;;-1.30;99.90;;;;;;5066269;28;20044;-74
2023/03/08 02:56:53;;;;;;;1.10;0.93;;;-1.30;99.90;;;;;;5044979;28;20055;-73
2023/03/08 02:59:19;;;;;;;3.53;1.17;;;-1.30;99.90;;;;;;5044369;28;20125;-72
2023/03/08 03:01:44;;;;;;;6.07;1.40;;;-1.30;99.90;;;;;;5033977;28;20040;-73
2023/03/08 03:04:10;;;;;;;5.93;1.35;;;-1.30;99.90;;;;;;5059480;28;20162;-72
2023/03/08 03:06:36;;;;;;;3.55;1.30;;;-1.30;99.90;;;;;;5064722;28;20044;-73
2023/03/08 03:09:08;;;;;;;2.53;1.40;;;-1.30;99.90;;;;;;5043491;28;20044;-72
2023/03/08 03:11:34;;;;;;;1.85;1.30;;;-1.30;99.90;;;;;;5063778;28;20414;-72
2023/03/08 03:14:01;;;;;;;2.00;1.08;;;-1.30;99.90;;;;;;5042563;28;20048;-73
2023/03/08 03:16:27;;;;;;;7.05;1.20;;;-1.30;99.90;;;;;;5057325;28;20045;-73
2023/03/08 03:18:54;;;;;;;3.67;1.70;;;-1.30;99.90;;;;;;5062479;28;20083;-73
2023/03/08 03:21:21;;;;;;;6.50;1.38;;;-1.30;99.90;;;;;;5058861;28;20049;-73
2023/03/08 03:23:47;;;;;;;4.78;1.40;;;-1.40;99.90;;;;;;5044796;28;20135;-72
2023/03/08 03:26:16;;;;;;;3.92;1.38;;;-1.40;99.90;;;;;;5046952;28;20555;-74
2023/03/08 03:28:42;;;;;;;3.78;1.60;;;-1.30;99.90;;;;;;5064519;28;20068;-73
2023/03/08 03:31:13;;;;;;;7.15;1.38;;;-1.40;99.90;;;;;;5048131;28;20048;-73
2023/03/08 03:33:38;;;;;;;4.18;1.40;;;-1.30;99.90;;;;;;5064373;28;20067;-73
2023/03/08 03:36:05;;;;;;;2.03;1.25;;;-1.40;99.90;;;;;;5033474;28;20105;-73
2023/03/08 03:38:31;;;;;;;4.40;1.48;;;-1.40;99.90;;;;;;5062716;28;20044;-72
2023/03/08 03:41:02;;;;;;;4.80;1.70;;;-1.40;99.90;;;;;;5046369;28;20044;-73
2023/03/08 03:43:28;;;;;;;6.80;1.90;;;-1.40;99.90;;;;;;5059843;28;20103;-73
2023/03/08 03:45:58;;;;;;;6.72;1.55;;;-1.50;99.90;;;;;;5063234;28;20048;-74
2023/03/08 03:48:24;;;;;;;4.75;1.77;;;-1.50;99.90;;;;;;5063147;28;20105;-73
2023/03/08 03:50:58;;;;;;;3.85;1.67;;;-1.40;99.90;;;;;;5050795;28;20121;-74
2023/03/08 03:53:26;;;;;;;5.38;1.80;;;-1.40;99.90;;;;;;5049611;28;20738;-73
2023/03/08 03:55:51;;;;;;;5.07;1.60;;;-1.50;99.90;;;;;;5049513;28;20411;-73
2023/03/08 03:58:17;;;;;;;3.83;1.90;;;-1.50;99.90;;;;;;5060678;28;20056;-73
2023/03/08 04:00:43;;;;;;;4.72;1.58;;;-1.50;99.90;;;;;;5052813;28;20048;-73
2023/03/08 04:03:09;;;;;;;2.70;1.73;;;-1.50;99.90;;;;;;5066359;28;20055;-74
2023/03/08 04:05:35;;;;;;;6.07;1.67;;;-1.50;99.90;;;;;;5040288;28;20036;-73
2023/03/08 04:08:00;;;;;;;5.47;1.80;;;-1.50;99.90;;;;;;5005559;28;20083;-73
2023/03/08 04:10:26;;;;;;;4.20;1.60;;;-1.50;99.90;;;;;;5035529;28;20121;-73
2023/03/08 04:12:52;;;;;;;3.78;1.88;;;-1.50;99.90;;;;;;5069125;28;20489;-73
2023/03/08 04:15:18;;;;;;;7.88;2.45;;;-1.50;99.90;;;;;;5065651;28;20058;-72
2023/03/08 04:17:46;;;;;;;4.63;1.58;;;-1.50;99.90;;;;;;5065733;28;20056;-75
2023/03/08 04:20:13;;;;;;;3.97;1.90;;;-1.50;99.90;;;;;;5050976;28;20051;-72
2023/03/08 04:22:39;;;;;;;3.28;1.60;;;-1.50;99.90;;;;;;5057192;28;20085;-73
2023/03/08 04:25:05;;;;;;;2.90;1.40;;;-1.50;99.90;;;;;;5055878;28;20052;-73
2023/03/08 04:27:31;;;;;;;4.20;1.30;;;-1.50;99.90;;;;;;5067153;28;20155;-73
2023/03/08 04:29:56;;;;;;;3.00;1.15;;;-1.50;99.90;;;;;;5050811;28;20570;-73
2023/03/08 04:32:22;;;;;;;4.00;1.10;;;-1.50;99.90;;;;;;5066511;28;20052;-73
2023/03/08 04:34:48;;;;;;;2.13;1.35;;;-1.40;99.90;;;;;;5066552;28;20189;-72
2023/03/08 04:37:14;;;;;;;3.50;1.40;;;-1.50;99.90;;;;;;5071870;28;20048;-73
2023/03/08 04:39:39;;;;;;;5.78;1.30;;;-1.50;99.90;;;;;;5070859;28;20122;-73
2023/03/08 04:42:06;;;;;;;1.45;1.05;;;-1.50;99.90;;;;;;5050745;28;20076;-73
2023/03/08 04:44:32;;;;;;;2.53;1.15;;;-1.50;99.90;;;;;;5067418;28;20459;-73
2023/03/08 04:46:57;;;;;;;2.50;1.33;;;-1.50;99.90;;;;;;5066119;28;20051;-75
2023/03/08 04:49:24;;;;;;;3.38;1.30;;;-1.50;99.90;;;;;;5047169;28;20044;-73
2023/03/08 04:51:50;;;;;;;6.18;1.23;;;-1.50;99.90;;;;;;5067198;28;20521;-73
2023/03/08 04:54:16;;;;;;;4.65;1.17;;;-1.50;99.90;;;;;;5066945;28;20040;-74
2023/03/08 04:56:42;;;;;;;4.72;1.50;;;-1.50;99.90;;;;;;5066499;28;20040;-73
2023/03/08 04:59:08;;;;;;;2.85;1.35;;;-1.30;99.90;;;;;;5048417;28;20067;-73
2023/03/08 05:01:34;;;;;;;3.58;1.35;;;-1.40;99.90;;;;;;5045652;28;20041;-72
2023/03/08 05:03:59;;;;;;;4.45;1.42;;;-1.40;99.90;;;;;;5049826;28;20108;-73
2023/03/08 05:06:26;;;;;;;3.15;1.13;;;-1.40;99.90;;;;;;5045104;28;20139;-72
2023/03/08 05:08:53;;;;;;;4.63;1.40;;;-1.50;99.90;;;;;;5050391;28;20048;-73
2023/03/08 05:11:22;;;;;;;4.78;1.50;;;-1.50;99.90;;;;;;5064248;28;20052;-74
2023/03/08 05:13:48;;;;;;;3.22;1.40;;;-1.50;99.90;;;;;;5062937;28;20355;-72
2023/03/08 05:16:14;;;;;;;3.55;1.23;;;-1.40;99.90;;;;;;5068998;28;20056;-74
2023/03/08 05:18:40;;;;;;;2.45;1.20;;;-1.50;99.90;;;;;;5045381;28;20535;-74
2023/03/08 05:21:11;;;;;;;2.72;1.23;;;-1.50;99.90;;;;;;5071029;28;20060;-76
2023/03/08 05:23:37;;;;;;;5.00;1.20;;;-1.40;99.90;;;;;;5045629;28;20075;-73
2023/03/08 05:26:05;;;;;;;2.58;1.27;;;-1.40;99.90;;;;;;5068888;28;20052;-72
2023/03/08 05:28:33;;;;;;;5.30;2.03;;;-1.40;99.90;;;;;;5070055;28;20035;-74
2023/03/08 05:31:01;;;;;;;4.65;1.50;;;-1.40;99.90;;;;;;5067268;28;20053;-74
2023/03/08 05:33:27;;;;;;;3.50;1.40;;;-1.40;99.90;;;;;;5069218;28;20044;-73
2023/03/08 05:35:53;;;;;;;4.90;1.60;;;-1.40;99.90;;;;;;5075276;28;20432;-73
2023/03/08 05:38:22;;;;;;;3.60;1.60;;;-1.30;99.90;;;;;;5050119;28;20055;-74
2023/03/08 05:40:49;;;;;;;2.47;1.20;;;-1.40;99.90;;;;;;5056171;28;20131;-73
2023/03/08 05:43:16;;;;;;;6.07;1.40;;;-1.30;99.90;;;;;;5071012;28;20040;-74
2023/03/08 05:45:42;;;;;;;4.90;1.58;;;-1.30;99.90;;;;;;5049998;28;20116;-74
2023/03/08 05:48:08;;;;;;;2.35;1.30;;;-1.30;99.90;;;;;;5048454;28;20124;-74
2023/03/08 05:50:37;;;;;;;3.85;1.38;;;-1.40;99.90;;;;;;5067339;28;20040;-73
2023/03/08 05:53:03;;;;;;;4.47;1.58;;;-1.40;99.90;;;;;;5064125;28;20040;-73
2023/03/08 05:55:28;;;;;;;3.08;1.40;;;-1.40;99.90;;;;;;5035283;28;20530;-75
2023/03/08 05:57:54;;;;;;;4.07;1.40;;;-1.40;99.90;;;;;;5065538;28;20039;-76
2023/03/08 06:00:20;;;;;;;6.25;1.50;;;-1.50;99.90;;;;;;5052188;28;20054;-75
2023/03/08 06:02:46;;;;;;;2.22;1.30;;;-1.50;99.90;;;;;;5075745;28;20035;-73
2023/03/08 06:05:12;;;;;;;4.72;1.60;;;-1.50;99.90;;;;;;5049655;28;20032;-73
2023/03/08 06:07:38;;;;;;;5.88;1.65;;;-1.50;99.90;;;;;;5059056;28;20077;-73
2023/03/08 06:10:04;;;;;;;4.35;1.67;;;-1.50;99.90;;;;;;5068500;28;20060;-73
2023/03/08 06:12:30;;;;;;;4.85;1.70;;;-1.50;99.90;;;;;;5049570;28;20075;-73
2023/03/08 06:14:56;;;;;;;5.07;1.45;;;-1.50;99.90;;;;;;5063726;28;20202;-73
2023/03/08 06:17:21;;;;;;;6.03;1.50;;;-1.50;99.90;;;;;;5037778;28;20054;-73
2023/03/08 06:19:47;;;;;;;3.20;1.45;;;-1.40;99.90;;;;;;5057905;28;20527;-72
2023/03/08 06:22:15;;;;;;;2.58;1.42;;;-1.40;99.90;;;;;;5044358;28;20044;-74
2023/03/08 06:24:41;;;;;;;1.83;1.40;;;-1.40;99.90;;;;;;5052033;28;20562;-73
2023/03/08 06:27:07;;;;;;;5.38;1.30;;;-1.50;99.90;;;;;;5047605;28;20036;-73
2023/03/08 06:29:33;;;;;;;5.35;1.50;;;-1.50;99.90;;;;;;5015661;28;20129;-73
2023/03/08 06:31:58;;;;;;;4.18;1.48;;;-1.40;99.90;;;;;;5041729;28;20044;-72
2023/03/08 06:34:24;;;;;;;3.88;1.55;;;-1.40;99.90;;;;;;5043599;28;20048;-73
2023/03/08 06:36:50;;;;;;;3.80;1.35;;;-1.40;99.90;;;;;;5019851;28;20044;-73
2023/03/08 06:39:16;;;;;;;8.00;1.70;;;-1.40;99.90;;;;;;5044774;28;20105;-73
2023/03/08 06:41:42;;;;;;;7.13;1.70;;;-1.40;99.90;;;;;;5045249;28;20048;-73
2023/03/08 06:44:09;;;;;;;3.63;1.42;;;-1.30;99.90;;;;;;5064187;28;20486;-75
2023/03/08 06:46:35;;;;;;;3.75;1.52;;;-1.40;99.90;;;;;;5043140;28;20074;-74
2023/03/08 06:49:02;;;;;;;5.82;1.55;;;-1.40;99.90;;;;;;5008245;28;20040;-74
2023/03/08 06:51:27;;;;;;;3.28;1.60;;;-1.40;99.90;;;;;;5064770;28;20566;-73
2023/03/08 06:53:53;;;;;;;3.53;1.60;;;-1.40;99.90;;;;;;5047673;28;20126;-73
2023/03/08 06:56:19;;;;;;;2.78;1.30;;;-1.20;99.90;;;;;;5060758;28;20097;-74
2023/03/08 06:58:45;;;;;;;5.20;1.40;;;-1.30;99.90;;;;;;5053121;28;20124;-73
2023/03/08 07:01:12;;;;;;;3.83;1.73;;;-1.30;99.90;;;;;;5026134;28;20048;-73
2023/03/08 07:03:38;;;;;;;2.22;1.30;;;-1.30;99.90;;;;;;5051666;28;20040;-74
2023/03/08 07:06:08;;;;;;;3.35;1.52;;;-1.30;99.90;;;;;;5060649;28;20528;-75
2023/03/08 07:08:34;;;;;;;4.97;1.90;;;-1.30;99.90;;;;;;5052466;28;20044;-74
2023/03/08 07:11:00;;;;;;;4.22;1.50;;;-1.20;99.90;;;;;;5048093;28;20119;-67
2023/03/08 07:13:28;;;;;;;3.75;1.65;;;-1.20;99.90;;;;;;5058119;28;20119;-67
2023/03/08 07:15:54;;;;;;;4.90;1.75;;;-1.10;99.90;;;;;;5067846;28;20110;-66
2023/03/08 07:18:20;;;;;;;6.53;2.33;;;-1.10;99.90;;;;;;5071849;28;20043;-67
2023/03/08 07:20:55;;;;;;;6.88;1.73;;;-1.10;99.90;;;;;;5070777;28;20044;-67
2023/03/08 07:23:21;;;;;;;3.25;1.67;;;-1.10;99.90;;;;;;5072161;28;20118;-67
2023/03/08 07:25:47;;;;;;;8.05;2.50;;;-1.10;99.90;;;;;;5070250;28;20056;-66
2023/03/08 07:28:13;;;;;;;6.88;2.63;;;-1.10;99.90;;;;;;5055922;28;20048;-67
2023/03/08 07:30:39;;;;;;;4.78;2.85;;;-1.00;99.90;;;;;;5046739;28;20059;-67
2023/03/08 07:33:04;;;;;;;5.25;2.80;;;-1.00;99.90;;;;;;5062513;28;20100;-67
2023/03/08 07:35:30;;;;;;;5.88;3.20;;;-1.00;99.90;;;;;;5057861;28;20044;-67
2023/03/08 07:37:56;;;;;;;4.30;3.10;;;-1.00;99.90;;;;;;5031747;28;20130;-66
2023/03/08 07:40:22;;;;;;;6.53;3.40;;;-1.00;99.90;;;;;;5062048;28;20109;-67
2023/03/08 07:42:48;;;;;;;5.95;3.55;;;-0.90;99.90;;;;;;5047444;28;20127;-66
2023/03/08 07:45:14;;;;;;;5.72;3.90;;;-0.90;99.90;;;;;;5062330;28;20436;-67
2023/03/08 07:47:40;;;;;;;5.90;3.95;;;-0.80;99.90;;;;;;5055822;28;21345;-67
2023/03/08 07:50:07;;;;;;;5.93;3.55;;;-0.80;99.90;;;;;;5049025;28;20135;-66
2023/03/08 07:52:33;;;;;;;7.85;3.70;;;-0.70;99.90;;;;;;5049473;28;20044;-66
2023/03/08 07:55:01;;;;;;;6.15;3.78;;;-0.70;99.90;;;;;;5046897;28;20051;-67
2023/03/08 07:57:26;;;;;;;6.05;3.80;;;-0.60;99.90;;;;;;5069961;28;20093;-67
2023/03/08 07:59:52;;;;;;;6.15;4.03;;;-0.60;99.90;;;;;;5046352;28;20079;-67
2023/03/08 08:02:18;;;;;;;6.90;4.10;;;-0.40;99.90;;;;;;5068592;28;20482;-67
2023/03/08 08:04:44;;;;;;;6.47;3.88;;;-0.50;99.90;;;;;;5070141;28;20040;-67
2023/03/08 08:07:15;;;;;;;8.40;6.53;;;-0.40;99.90;;;;;;5071836;28;20051;-67
2023/03/08 08:09:41;;;;;;;6.15;4.10;;;-0.30;99.90;;;;;;5072055;28;20044;-67
2023/03/08 08:12:07;;;;;;;7.43;3.90;;;-0.30;99.90;;;;;;5049015;28;20075;-67
2023/03/08 08:14:33;;;;;;;5.32;3.65;;;-0.20;99.90;;;;;;5071912;28;20512;-67
2023/03/08 08:16:59;;;;;;;5.53;3.90;;;-0.20;99.90;;;;;;5029815;28;20048;-67
2023/03/08 08:19:25;;;;;;;7.63;4.30;;;-0.20;99.90;;;;;;5069856;28;20126;-67
2023/03/08 08:21:51;;;;;;;7.53;4.40;;;-0.10;99.90;;;;;;5030056;28;20045;-67
2023/03/08 08:24:17;;;;;;;7.85;4.57;;;-0.10;99.90;;;;;;5068039;28;20047;-67
2023/03/08 08:26:43;;;;;;;8.15;4.57;;;0.00;99.90;;;;;;5063117;28;20055;-67
2023/03/08 08:29:09;;;;;;;7.43;4.47;;;0.00;99.90;;;;;;5064782;28;20048;-67
2023/03/08 08:31:35;;;;;;;7.28;4.72;;;0.00;99.90;;;;;;5049893;28;20052;-67
2023/03/08 08:34:01;;;;;;;7.43;5.00;;;0.10;99.90;;;;;;5067276;28;20054;-67
2023/03/08 08:36:27;;;;;;;7.38;5.20;;;0.10;99.90;;;;;;5045434;28;20048;-67
2023/03/08 08:38:53;;;;;;;8.07;5.22;;;0.20;99.90;;;;;;5053412;28;20048;-67
2023/03/08 08:41:20;;;;;;;7.72;5.07;;;0.40;99.90;;;;;;5069083;28;20123;-67
2023/03/08 08:43:47;;;;;;;9.57;5.15;;;0.30;99.90;;;;;;5071138;28;20082;-67
2023/03/08 08:46:13;;;;;;;7.18;5.50;;;0.40;99.90;;;;;;5068450;28;20769;-66
2023/03/08 08:48:40;;;;;;;10.00;5.97;;;0.40;99.90;;;;;;5070434;28;20498;-67
2023/03/08 08:51:08;;;;;;;9.27;5.43;;;0.50;99.90;;;;;;5063242;28;20052;-66
2023/03/08 08:53:35;;;;;;;7.07;5.32;;;0.60;99.90;;;;;;5055929;28;20051;-66
2023/03/08 08:56:23;;;;;;;9.68;7.00;;;0.60;99.90;;;;;;5069020;28;20043;-66
2023/03/08 08:58:49;;;;;;;8.57;6.75;;;0.70;99.90;;;;;;5065621;28;20052;-66
2023/03/08 09:01:17;;;;;;;8.55;6.20;;;0.80;99.90;;;;;;5071313;28;20109;-66
2023/03/08 09:03:44;;;;;;;9.65;7.40;;;0.90;99.90;;;;;;5050712;28;20515;-66
2023/03/08 09:06:11;;;;;;;11.23;7.25;;;0.90;99.90;;;;;;5067799;28;20407;-66
2023/03/08 09:08:37;;;;;;;9.73;7.45;;;1.00;99.90;;;;;;5069741;28;20043;-66
2023/03/08 09:11:08;;;;;;;10.95;6.70;;;1.10;99.90;;;;;;5076119;28;20036;-66
2023/03/08 09:13:34;;;;;;;12.32;6.75;;;1.10;99.90;;;;;;5073466;28;20414;-67
2023/03/08 09:16:00;;;;;;;9.20;5.93;;;1.20;99.90;;;;;;5073258;28;20510;-66
2023/03/08 09:18:26;;;;;;;8.98;6.32;;;1.30;99.90;;;;;;5068752;28;20146;-66
2023/03/08 09:20:52;;;;;;;8.73;6.13;;;1.30;99.90;;;;;;5037444;28;20123;-66
2023/03/08 09:23:18;;;;;;;9.55;6.28;;;1.40;99.90;;;;;;5066225;28;20487;-66
2023/03/08 09:25:43;;;;;;;8.80;6.25;;;1.50;99.90;;;;;;5072015;28;20086;-66
2023/03/08 09:28:12;;;;;;;10.80;6.20;;;1.50;99.90;;;;;;5069479;28;20057;-67
2023/03/08 09:30:38;;;;;;;11.27;6.85;;;1.60;99.90;;;;;;5071269;28;20414;-67
2023/03/08 09:33:04;;;;;;;8.45;6.13;;;1.70;99.90;;;;;;5068000;28;20052;-67
2023/03/08 09:35:30;;;;;;;8.32;5.60;;;1.80;99.90;;;;;;5072407;28;20110;-66
2023/03/08 09:37:56;;;;;;;7.88;5.13;;;1.90;99.90;;;;;;5048915;28;20043;-67
2023/03/08 09:40:26;;;;;;;7.80;5.30;;;2.00;99.90;;;;;;5066927;28;20047;-66
2023/03/08 09:42:56;;;;;;;8.63;5.53;;;2.00;99.90;;;;;;5056888;28;20386;-67
2023/03/08 09:45:27;;;;;;;6.13;5.00;;;2.10;99.90;;;;;;5061982;28;20059;-66
2023/03/08 09:48:00;;;;;;;7.13;4.60;;;2.30;99.90;;;;;;5050401;28;20413;-66
2023/03/08 09:50:54;;;;;;;6.30;4.30;;;2.40;99.90;;;;;;5066787;28;20044;-66
2023/03/08 09:53:41;;;;;;;6.72;5.53;;;2.40;99.90;;;;;;5064798;28;20147;-67
2023/03/08 09:56:23;;;;;;;9.15;4.53;;;2.50;99.90;;;;;;5064578;28;20478;-67
2023/03/08 09:58:58;;;;;;;10.25;5.05;;;2.60;99.90;;;;;;5053483;28;20036;-67
2023/03/08 10:01:37;;;;;;;8.23;4.80;;;2.60;99.90;;;;;;5045514;28;20056;-67
2023/03/08 10:04:39;;;;;;;6.65;4.63;;;2.70;99.90;;;;;;5067294;28;20043;-66
2023/03/08 10:07:30;;;;;;;7.05;5.25;;;2.80;99.90;;;;;;5069783;28;20046;-67
2023/03/08 10:10:24;;;;;;;8.50;5.18;;;2.90;99.90;;;;;;5056272;28;20040;-66
2023/03/08 10:13:17;;;;;;;7.75;5.28;;;3.00;99.90;;;;;;5051767;28;20043;-66
2023/03/08 10:15:47;;;;;;;8.43;4.70;;;3.10;99.90;;;;;;5071419;28;20086;-67
2023/03/08 10:18:28;;;;;;;8.02;4.80;;;3.20;99.90;;;;;;5069157;28;20082;-67
2023/03/08 10:20:56;;;;;;;7.88;5.13;;;3.30;99.90;;;;;;5066553;28;20539;-67
2023/03/08 10:23:24;;;;;;;5.60;3.33;;;3.30;99.90;;;;;;5069296;28;20043;-66
2023/03/08 10:25:50;;;;;;;8.30;3.47;;;3.50;99.90;;;;;;5061267;28;20517;-67
2023/03/08 10:28:22;;;;;;;4.65;3.33;;;3.60;99.90;;;;;;5026996;28;20490;-66
2023/03/08 10:30:57;;;;;;;8.23;3.67;;;3.70;99.90;;;;;;5051207;28;20059;-67
2023/03/08 10:33:26;;;;;;;5.70;3.80;;;3.70;99.90;;;;;;5059879;28;20044;-66
2023/03/08 10:36:01;;;;;;;7.57;3.97;;;3.90;99.90;;;;;;5060114;28;21144;-67
2023/03/08 10:38:32;;;;;;;5.63;4.18;;;4.00;99.90;;;;;;5066111;28;20040;-66
2023/03/08 10:41:14;;;;;;;5.55;4.25;;;4.00;99.90;;;;;;5070813;28;20071;-67
2023/03/08 10:43:54;;;;;;;10.55;4.78;;;4.20;99.90;;;;;;5067644;28;22017;-66
2023/03/08 10:46:23;;;;;;;8.13;4.55;;;4.30;99.90;;;;;;5042628;28;20051;-67
2023/03/08 10:48:49;;;;;;;4.93;4.18;;;4.40;99.90;;;;;;5046904;28;20052;-67
2023/03/08 10:51:27;;;;;;;7.22;4.18;;;4.50;99.90;;;;;;5062417;28;20039;-66
2023/03/08 10:54:01;;;;;;;8.43;4.50;;;4.70;99.90;;;;;;5059065;28;20105;-67
2023/03/08 10:56:36;;;;;;;5.72;3.80;;;4.70;99.90;;;;;;5060276;28;20058;-66
2023/03/08 10:59:03;;;;;;;9.02;4.32;;;4.80;99.90;;;;;;5062124;28;20087;-67
2023/03/08 11:01:33;;;;;;;5.38;3.70;;;4.80;99.90;;;;;;5069777;28;20048;-67
2023/03/08 11:04:03;;;;;;;6.55;3.78;;;4.90;99.90;;;;;;5060906;28;20040;-67
2023/03/08 11:06:30;;;;;;;5.80;3.40;;;4.90;99.90;;;;;;5034183;28;20036;-67
2023/03/08 11:09:00;;;;;;;7.13;3.50;;;5.00;99.90;;;;;;5046962;28;20109;-66
2023/03/08 11:11:26;;;;;;;9.45;3.92;;;5.00;99.90;;;;;;5048839;28;20040;-66
2023/03/08 11:13:53;;;;;;;4.57;3.90;;;5.10;99.90;;;;;;5058134;28;20049;-67
2023/03/08 11:16:48;;;;;;;7.72;4.38;;;5.10;99.90;;;;;;5068131;28;20053;-66
2023/03/08 11:19:43;;;;;;;5.28;3.00;;;5.20;99.90;;;;;;5067292;28;20098;-66
2023/03/08 11:22:53;;;;;;;5.45;2.90;;;5.40;99.90;;;;;;5049823;28;20109;-66
2023/03/08 11:25:59;;;;;;;4.57;1.70;;;5.40;99.90;;;;;;5063345;28;20064;-66
2023/03/08 11:28:36;;;;;;;4.50;1.50;;;5.50;99.90;;;;;;5004876;28;20134;-67
2023/03/08 11:31:11;;;;;;;5.60;1.80;;;5.50;99.90;;;;;;5005079;28;20041;-67
2023/03/08 11:34:11;;;;;;;4.47;2.20;;;5.60;99.90;;;;;;5042193;28;20119;-67
2023/03/08 11:37:01;;;;;;;3.85;2.10;;;5.60;99.90;;;;;;5047204;28;20097;-66
2023/03/08 11:39:32;;;;;;;4.15;1.60;;;5.70;99.90;;;;;;5063231;28;20112;-67
2023/03/08 11:42:03;;;;;;;4.43;1.30;;;5.80;99.90;;;;;;5064330;28;20127;-66
2023/03/08 11:44:47;;;;;;;4.07;1.70;;;5.90;99.90;;;;;;5060060;28;20036;-66
2023/03/08 11:47:43;;;;;;;3.58;1.83;;;6.00;99.90;;;;;;5038433;28;20117;-67
2023/03/08 11:50:21;;;;;;;4.00;1.50;;;6.00;99.90;;;;;;5041250;28;20071;-67
2023/03/08 11:53:08;;;;;;;2.60;1.60;;;6.00;99.90;;;;;;5048930;28;20051;-66
2023/03/08 11:55:45;;;;;;;6.18;1.90;;;6.00;99.90;;;;;;5059962;28;20051;-66
2023/03/08 11:58:29;;;;;;;3.80;2.03;;;6.00;99.90;;;;;;5056147;28;20068;-67
2023/03/08 12:01:23;;;;;;;4.05;1.70;;;6.00;99.90;;;;;;5059061;28;20500;-66
2023/03/08 12:03:54;;;;;;;3.50;1.85;;;6.00;99.90;;;;;;5034533;28;20055;-67
2023/03/08 12:06:24;;;;;;;5.78;2.05;;;6.00;99.90;;;;;;5059577;28;20119;-67
2023/03/08 12:09:12;;;;;;;6.70;1.92;;;6.10;99.90;;;;;;5064991;28;20044;-66
2023/03/08 12:11:45;;;;;;;6.22;2.00;;;6.20;99.90;;;;;;5055441;28;20499;-67
2023/03/08 12:14:29;;;;;;;4.40;1.77;;;6.30;99.90;;;;;;5052602;28;20117;-67
2023/03/08 12:17:18;;;;;;;3.80;1.50;;;6.40;99.90;;;;;;5048951;28;20055;-67
2023/03/08 12:19:50;;;;;;;2.70;1.50;;;6.40;99.90;;;;;;5042336;28;20056;-67
2023/03/08 12:22:24;;;;;;;1.75;1.48;;;6.30;99.90;;;;;;5059738;28;20044;-67
2023/03/08 12:24:53;;;;;;;5.28;1.40;;;6.30;99.90;;;;;;5041680;28;20064;-67
2023/03/08 12:27:41;;;;;;;3.00;1.30;;;6.30;99.90;;;;;;5055478;28;20045;-67
2023/03/08 12:30:24;;;;;;;1.83;1.10;;;6.30;99.90;;;;;;5048678;28;20119;-67
2023/03/08 12:32:54;;;;;;;2.05;1.17;;;6.30;99.90;;;;;;5059372;28;20132;-67
2023/03/08 12:35:35;;;;;;;5.30;1.45;;;6.30;99.90;;;;;;5058727;28;20035;-67
2023/03/08 12:38:08;;;;;;;1.67;1.23;;;6.30;99.90;;;;;;5025766;28;20105;-67
2023/03/08 12:40:41;;;;;;;2.55;1.30;;;6.30;99.90;;;;;;5054913;28;20064;-67
2023/03/08 12:43:11;;;;;;;3.80;1.35;;;6.40;99.90;;;;;;5062729;28;20454;-68
2023/03/08 12:45:40;;;;;;;3.45;1.20;;;6.50;99.90;;;;;;5062648;28;20055;-67
2023/03/08 12:48:06;;;;;;;3.70;1.42;;;6.60;99.90;;;;;;5057543;28;20124;-67
2023/03/08 12:50:42;;;;;;;3.85;1.23;;;6.70;99.90;;;;;;5043518;28;20119;-67
2023/03/08 12:53:25;;;;;;;11.65;1.55;;;6.70;99.90;;;;;;5060910;28;20052;-66
2023/03/08 12:56:08;;;;;;;4.82;1.60;;;6.80;99.90;;;;;;5068219;28;20427;-67
2023/03/08 12:58:39;;;;;;;7.60;1.70;;;6.80;99.90;;;;;;5060854;28;20051;-67
2023/03/08 13:01:27;;;;;;;3.92;1.38;;;6.80;99.90;;;;;;5055140;28;20044;-67
2023/03/08 13:03:53;;;;;;;4.43;1.60;;;6.80;99.90;;;;;;5061709;28;20474;-67